Time;durP1;ratioP1;P1;durP2;ratioP2;P2;SDS_P1;SDS_P2;PMS_P1;PMS_P2;Temp;Humidity;BMP_temperature;BMP_pressure;BME280_temperature;BME280_humidity;BME280_pressure;Samples;Min_cycle;Max_cycle;Signal;HPM_P1;HPM_P2
2022/04/08 00:00:46;;;;;;;22.00;4.00;;;;;;;4.45;100.00;99653.06;5061556;28;20036;-65
2022/04/08 00:03:12;;;;;;;24.30;4.30;;;;;;;4.53;100.00;99633.97;5064227;28;20024;-72
2022/04/08 00:05:38;;;;;;;21.70;3.85;;;;;;;4.59;100.00;99645.34;5060966;28;20032;-72
2022/04/08 00:08:03;;;;;;;22.80;4.25;;;;;;;4.56;100.00;99648.81;5063618;28;20020;-72
2022/04/08 00:10:29;;;;;;;22.92;3.83;;;;;;;4.69;100.00;99665.53;5062101;28;20025;-72
2022/04/08 00:12:54;;;;;;;22.30;4.10;;;;;;;4.73;100.00;99667.28;5062391;28;20446;-73
2022/04/08 00:15:19;;;;;;;24.48;4.38;;;;;;;4.63;100.00;99660.22;5044370;28;20517;-73
2022/04/08 00:17:45;;;;;;;22.90;3.85;;;;;;;4.62;100.00;99672.44;5061219;28;20033;-72
2022/04/08 00:20:10;;;;;;;22.88;3.80;;;;;;;4.70;100.00;99682.97;5064029;28;20023;-72
2022/04/08 00:22:40;;;;;;;21.83;3.70;;;;;;;4.71;100.00;99684.72;5060741;28;20063;-73
2022/04/08 00:25:07;;;;;;;22.00;3.80;;;;;;;4.65;100.00;99690.78;5064339;28;20028;-72
2022/04/08 00:27:32;;;;;;;22.42;3.80;;;;;;;4.55;100.00;99688.94;5061075;28;20458;-72
2022/04/08 00:29:58;;;;;;;23.85;4.22;;;;;;;4.70;100.00;99693.44;5062759;28;20467;-68
2022/04/08 00:32:24;;;;;;;22.70;3.90;;;;;;;4.64;100.00;99703.88;5062491;28;20028;-72
2022/04/08 00:34:49;;;;;;;24.58;4.65;;;;;;;4.56;100.00;99687.19;5061483;28;20105;-66
2022/04/08 00:37:15;;;;;;;21.88;3.78;;;;;;;4.39;100.00;99684.41;5063525;28;20474;-65
2022/04/08 00:39:40;;;;;;;24.40;4.22;;;;;;;4.36;100.00;99700.94;5060567;28;20459;-65
2022/04/08 00:42:06;;;;;;;24.02;4.03;;;;;;;4.42;100.00;99698.38;5063930;28;20501;-65
2022/04/08 00:44:32;;;;;;;24.48;4.35;;;;;;;4.42;100.00;99706.25;5061484;28;20025;-65
2022/04/08 00:46:57;;;;;;;23.30;4.43;;;;;;;4.49;100.00;99705.44;5062670;28;20138;-66
2022/04/08 00:49:22;;;;;;;24.55;4.45;;;;;;;4.52;100.00;99705.47;5062189;28;20020;-65
2022/04/08 00:51:48;;;;;;;27.05;4.50;;;;;;;4.52;100.00;99721.19;5061539;28;20025;-65
2022/04/08 00:54:13;;;;;;;22.42;3.75;;;;;;;4.57;100.00;99723.84;5063447;28;20463;-65
2022/04/08 00:56:38;;;;;;;24.25;4.30;;;;;;;4.56;100.00;99731.69;5063319;28;20029;-65
2022/04/08 00:59:04;;;;;;;25.48;5.13;;;;;;;4.49;100.00;99731.63;5067082;28;20119;-66
2022/04/08 01:01:31;;;;;;;23.02;4.05;;;;;;;4.46;100.00;99738.56;5065020;28;20023;-65
2022/04/08 01:03:57;;;;;;;24.10;4.10;;;;;;;4.43;100.00;99736.78;5065856;28;20515;-65
2022/04/08 01:06:25;;;;;;;23.48;4.18;;;;;;;4.45;100.00;99734.19;5066258;28;20021;-66
2022/04/08 01:08:53;;;;;;;24.88;4.88;;;;;;;4.42;100.00;99734.16;5064857;28;20468;-65
2022/04/08 01:11:18;;;;;;;23.38;4.20;;;;;;;4.44;100.00;99738.56;5066240;28;20467;-66
2022/04/08 01:13:44;;;;;;;26.13;4.60;;;;;;;4.31;100.00;99747.09;5064074;28;20025;-67
2022/04/08 01:16:10;;;;;;;22.50;4.07;;;;;;;4.31;100.00;99753.22;5067360;28;20031;-66
2022/04/08 01:18:36;;;;;;;23.58;4.10;;;;;;;4.34;100.00;99752.41;5063998;28;20083;-67
2022/04/08 01:21:05;;;;;;;24.50;4.40;;;;;;;4.28;100.00;99758.44;5066466;28;20029;-66
2022/04/08 01:23:33;;;;;;;23.83;4.18;;;;;;;4.23;100.00;99764.47;5064281;28;20089;-66
2022/04/08 01:25:58;;;;;;;25.48;4.55;;;;;;;4.17;100.00;99760.03;5065468;28;20502;-66
2022/04/08 01:28:25;;;;;;;25.00;4.10;;;;;;;4.09;100.00;99757.31;5065396;28;20099;-66
2022/04/08 01:30:51;;;;;;;22.95;4.10;;;;;;;4.02;100.00;99758.09;5064712;28;20052;-66
2022/04/08 01:33:16;;;;;;;22.35;3.70;;;;;;;3.98;100.00;99762.38;5066178;28;20025;-66
2022/04/08 01:35:42;;;;;;;24.25;4.10;;;;;;;4.01;100.00;99765.03;5063460;28;20026;-67
2022/04/08 01:38:07;;;;;;;22.05;3.95;;;;;;;4.03;100.00;99772.91;5066582;28;20495;-66
2022/04/08 01:40:33;;;;;;;23.00;3.90;;;;;;;4.05;100.00;99778.16;5063966;28;20360;-67
2022/04/08 01:42:58;;;;;;;24.60;3.80;;;;;;;3.89;100.00;99774.44;5065702;28;20464;-67
2022/04/08 01:45:24;;;;;;;22.42;4.22;;;;;;;3.72;100.00;99766.38;5065118;28;20367;-69
2022/04/08 01:47:49;;;;;;;21.95;4.10;;;;;;;3.83;100.00;99772.66;5064358;28;20111;-66
2022/04/08 01:50:18;;;;;;;25.35;4.38;;;;;;;3.52;100.00;99782.59;5066185;28;20103;-66
2022/04/08 01:52:44;;;;;;;26.65;4.65;;;;;;;3.43;100.00;99778.09;5063019;28;20025;-70
2022/04/08 01:55:09;;;;;;;25.38;4.82;;;;;;;3.59;100.00;99786.22;5066506;28;20108;-67
2022/04/08 01:57:35;;;;;;;26.63;4.95;;;;;;;3.57;100.00;99785.28;5063401;28;20020;-66
2022/04/08 02:00:01;;;;;;;24.70;4.20;;;;;;;3.60;100.00;99783.63;5065081;28;20048;-66
2022/04/08 02:02:26;;;;;;;24.73;4.32;;;;;;;3.54;100.00;99782.63;5064713;28;20024;-67
2022/04/08 02:04:52;;;;;;;25.98;4.75;;;;;;;3.53;100.00;99786.13;5064048;28;20430;-66
2022/04/08 02:07:17;;;;;;;24.05;4.57;;;;;;;3.47;100.00;99793.00;5064856;28;20044;-68
2022/04/08 02:09:42;;;;;;;28.95;4.80;;;;;;;3.36;100.00;99789.31;5063112;28;20463;-67
2022/04/08 02:12:08;;;;;;;25.15;4.68;;;;;;;3.31;100.00;99790.97;5058447;28;20391;-67
2022/04/08 02:14:33;;;;;;;25.65;4.95;;;;;;;3.22;100.00;99796.03;5065435;28;20131;-66
2022/04/08 02:16:59;;;;;;;26.73;4.82;;;;;;;3.14;100.00;99793.28;5064069;28;20074;-67
2022/04/08 02:19:24;;;;;;;25.13;4.93;;;;;;;3.10;100.00;99801.91;5063990;28;20025;-67
2022/04/08 02:21:49;;;;;;;24.70;4.38;;;;;;;3.11;100.00;99804.56;5064943;28;20031;-66
2022/04/08 02:24:15;;;;;;;26.92;4.70;;;;;;;3.08;100.00;99798.41;5062759;28;20033;-66
2022/04/08 02:26:41;;;;;;;24.90;4.78;;;;;;;3.04;100.00;99800.06;5065664;28;20029;-66
2022/04/08 02:29:07;;;;;;;25.00;4.70;;;;;;;3.01;100.00;99809.59;5062879;28;20025;-66
2022/04/08 02:31:32;;;;;;;26.75;4.80;;;;;;;2.98;100.00;99813.03;5065100;28;20349;-67
2022/04/08 02:33:57;;;;;;;24.85;4.80;;;;;;;3.07;100.00;99812.31;5063795;28;20029;-67
2022/04/08 02:36:22;;;;;;;25.25;4.80;;;;;;;3.12;100.00;99819.38;5063674;28;20029;-66
2022/04/08 02:38:48;;;;;;;24.33;4.82;;;;;;;3.06;100.00;99821.00;5064758;28;20032;-66
2022/04/08 02:41:13;;;;;;;26.48;4.90;;;;;;;3.07;100.00;99814.94;5061930;28;20095;-67
2022/04/08 02:43:38;;;;;;;23.38;4.65;;;;;;;3.05;100.00;99814.91;5065526;28;20475;-65
2022/04/08 02:46:04;;;;;;;26.02;5.00;;;;;;;2.93;100.00;99815.56;5062463;28;20036;-66
2022/04/08 02:48:29;;;;;;;27.42;5.00;;;;;;;2.85;100.00;99821.47;5063946;28;20108;-66
2022/04/08 02:50:54;;;;;;;26.20;4.93;;;;;;;2.76;100.00;99817.81;5063983;28;20036;-64
2022/04/08 02:53:20;;;;;;;25.98;4.93;;;;;;;2.69;100.00;99815.06;5062846;28;20118;-66
2022/04/08 02:55:45;;;;;;;24.58;5.07;;;;;;;2.65;100.00;99819.38;5064893;28;20032;-66
2022/04/08 02:58:10;;;;;;;23.95;4.97;;;;;;;2.59;100.00;99819.22;5043315;28;20053;-66
2022/04/08 03:00:35;;;;;;;24.30;4.70;;;;;;;2.56;100.00;99819.16;5064922;28;20024;-66
2022/04/08 03:03:01;;;;;;;24.65;5.15;;;;;;;2.56;100.00;99825.28;5062710;28;20383;-66
2022/04/08 03:05:26;;;;;;;21.42;4.43;;;;;;;2.50;100.00;99825.13;5063526;28;20025;-66
2022/04/08 03:07:52;;;;;;;25.33;4.75;;;;;;;2.51;100.00;99819.06;5063756;28;20031;-66
2022/04/08 03:10:17;;;;;;;26.85;5.47;;;;;;;2.57;100.00;99820.94;5062104;28;20025;-65
2022/04/08 03:12:42;;;;;;;24.00;5.10;;;;;;;2.61;100.00;99823.63;5064861;28;20463;-64
2022/04/08 03:15:08;;;;;;;23.65;4.80;;;;;;;2.58;100.00;99825.31;5061340;28;20537;-65
2022/04/08 03:17:37;;;;;;;24.98;5.10;;;;;;;2.55;100.00;99828.72;5064292;28;20399;-65
2022/04/08 03:20:04;;;;;;;22.52;5.10;;;;;;;2.54;100.00;99824.34;5061386;28;20043;-65
2022/04/08 03:22:30;;;;;;;24.95;4.78;;;;;;;2.53;100.00;99824.31;5063237;28;20039;-65
2022/04/08 03:24:55;;;;;;;24.17;5.03;;;;;;;2.47;100.00;99832.03;5063222;28;20391;-64
2022/04/08 03:27:21;;;;;;;23.65;5.07;;;;;;;2.41;100.00;99831.03;5062102;28;20025;-64
2022/04/08 03:29:48;;;;;;;21.52;5.22;;;;;;;2.42;100.00;99838.03;5064111;28;20038;-65
2022/04/08 03:32:13;;;;;;;23.17;5.20;;;;;;;2.42;100.00;99835.41;5061525;28;20039;-65
2022/04/08 03:34:39;;;;;;;26.42;5.80;;;;;;;2.38;100.00;99844.03;5056968;28;20467;-65
2022/04/08 03:37:05;;;;;;;22.45;5.18;;;;;;;2.37;100.00;99847.47;5064067;28;20020;-64
2022/04/08 03:39:30;;;;;;;23.55;5.40;;;;;;;2.38;100.00;99849.25;5062397;28;20024;-65
2022/04/08 03:41:55;;;;;;;24.35;5.55;;;;;;;2.37;100.00;99850.06;5062875;28;20029;-66
2022/04/08 03:44:21;;;;;;;22.63;5.45;;;;;;;2.25;100.00;99855.03;5063593;28;20494;-65
2022/04/08 03:46:47;;;;;;;23.48;5.75;;;;;;;2.22;100.00;99849.75;5061692;28;20021;-65
2022/04/08 03:49:16;;;;;;;24.13;5.57;;;;;;;2.13;100.00;99846.97;5064420;28;20025;-66
2022/04/08 03:51:46;;;;;;;21.83;5.75;;;;;;;2.04;100.00;99851.09;5057476;28;20047;-68
2022/04/08 03:54:12;;;;;;;25.02;6.00;;;;;;;2.01;100.00;99856.25;5057207;28;20475;-66
2022/04/08 03:56:41;;;;;;;26.92;5.97;;;;;;;2.02;100.00;99859.72;5064243;28;20060;-67
2022/04/08 03:59:07;;;;;;;24.67;6.00;;;;;;;2.01;100.00;99858.88;5060709;28;20041;-65
2022/04/08 04:01:32;;;;;;;24.75;6.40;;;;;;;2.01;100.00;99861.47;5063313;28;20029;-66
2022/04/08 04:03:57;;;;;;;23.73;6.03;;;;;;;2.03;100.00;99854.56;5062363;28;20044;-65
2022/04/08 04:06:23;;;;;;;24.98;6.93;;;;;;;2.03;100.00;99864.09;5061983;28;20021;-67
2022/04/08 04:08:48;;;;;;;25.13;6.32;;;;;;;2.00;100.00;99857.09;5063954;28;20363;-67
2022/04/08 04:11:17;;;;;;;24.00;6.38;;;;;;;1.98;100.00;99850.06;5060635;28;20472;-66
2022/04/08 04:13:42;;;;;;;25.52;7.10;;;;;;;1.94;100.00;99854.34;5056857;28;20053;-65
2022/04/08 04:16:08;;;;;;;22.05;6.35;;;;;;;1.98;100.00;99858.78;5064297;28;20064;-66
2022/04/08 04:18:33;;;;;;;24.02;6.95;;;;;;;1.99;100.00;99862.28;5061324;28;20040;-66
2022/04/08 04:20:58;;;;;;;24.85;7.35;;;;;;;1.91;100.00;99856.88;5062599;28;20021;-65
2022/04/08 04:23:24;;;;;;;24.92;7.10;;;;;;;1.82;100.00;99848.81;5062858;28;20029;-67
2022/04/08 04:25:49;;;;;;;24.60;7.50;;;;;;;1.81;100.00;99854.91;5061460;28;20521;-66
2022/04/08 04:28:15;;;;;;;26.05;7.40;;;;;;;1.76;100.00;99843.47;5064055;28;20017;-65
2022/04/08 04:30:40;;;;;;;26.25;8.18;;;;;;;1.71;100.00;99844.25;5061998;28;20075;-71
2022/04/08 04:33:07;;;;;;;26.02;8.13;;;;;;;1.76;100.00;99854.78;5067421;28;20029;-72
2022/04/08 04:35:34;;;;;;;24.15;8.15;;;;;;;1.77;100.00;99850.47;5065453;28;20025;-72
2022/04/08 04:37:59;;;;;;;24.55;7.85;;;;;;;1.71;100.00;99852.06;5066217;28;20471;-72
2022/04/08 04:40:25;;;;;;;24.75;8.23;;;;;;;1.67;100.00;99852.81;5066269;28;20033;-72
2022/04/08 04:42:51;;;;;;;24.85;8.18;;;;;;;1.63;100.00;99861.44;5065537;28;20028;-71
2022/04/08 04:45:17;;;;;;;24.70;8.15;;;;;;;1.66;100.00;99858.00;5067241;28;20024;-72
2022/04/08 04:47:43;;;;;;;24.85;8.52;;;;;;;1.65;100.00;99866.69;5064172;28;20062;-71
2022/04/08 04:50:08;;;;;;;24.58;8.90;;;;;;;1.58;100.00;99860.41;5067571;28;20021;-72
2022/04/08 04:52:34;;;;;;;27.27;9.18;;;;;;;1.51;100.00;99863.72;5064893;28;20380;-72
2022/04/08 04:54:59;;;;;;;28.65;9.70;;;;;;;1.49;100.00;99857.59;5065998;28;20439;-72
2022/04/08 04:57:24;;;;;;;26.30;9.50;;;;;;;1.49;100.00;99861.06;5066074;28;20028;-70
2022/04/08 04:59:50;;;;;;;26.13;9.98;;;;;;;1.52;100.00;99861.16;5064313;28;20041;-73
2022/04/08 05:02:15;;;;;;;28.25;11.25;;;;;;;1.51;100.00;99867.19;5067153;28;20047;-71
2022/04/08 05:04:41;;;;;;;28.95;10.50;;;;;;;1.49;100.00;99849.78;5064037;28;20028;-72
2022/04/08 05:07:06;;;;;;;28.42;10.85;;;;;;;1.49;100.00;99855.00;5066987;28;20039;-72
2022/04/08 05:09:32;;;;;;;29.52;12.85;;;;;;;1.58;100.00;99855.22;5065137;28;20024;-65
2022/04/08 05:11:57;;;;;;;29.48;11.95;;;;;;;1.54;100.00;99848.16;5065408;28;20025;-65
2022/04/08 05:14:24;;;;;;;27.83;12.95;;;;;;;1.58;100.00;99851.72;5066068;28;20487;-66
2022/04/08 05:16:50;;;;;;;27.88;13.23;;;;;;;1.55;100.00;99855.13;5064207;28;20377;-65
2022/04/08 05:19:16;;;;;;;29.13;13.50;;;;;;;1.58;100.00;99855.22;5067309;28;20028;-66
2022/04/08 05:21:42;;;;;;;31.98;14.20;;;;;;;1.57;100.00;99845.63;5063474;28;20110;-66
2022/04/08 05:24:07;;;;;;;28.67;14.10;;;;;;;1.57;100.00;99856.03;5066929;28;20060;-65
2022/04/08 05:26:32;;;;;;;26.85;13.52;;;;;;;1.63;100.00;99847.50;5064763;28;20052;-65
2022/04/08 05:28:58;;;;;;;31.65;14.30;;;;;;;1.66;100.00;99845.88;5065105;28;20025;-66
2022/04/08 05:31:23;;;;;;;28.67;13.50;;;;;;;1.77;100.00;99845.25;5066378;28;20416;-66
2022/04/08 05:33:48;;;;;;;29.85;14.10;;;;;;;1.87;100.00;99850.69;5061734;28;20029;-66
2022/04/08 05:36:14;;;;;;;28.38;13.35;;;;;;;2.03;100.00;99843.25;5050956;28;20107;-66
2022/04/08 05:38:39;;;;;;;29.45;13.27;;;;;;;2.12;100.00;99843.44;5060572;28;20036;-66
2022/04/08 05:41:04;;;;;;;28.85;14.40;;;;;;;2.20;100.00;99836.69;5059950;28;20580;-66
2022/04/08 05:43:29;;;;;;;29.38;14.40;;;;;;;2.27;100.00;99837.69;5059220;28;20075;-65
2022/04/08 05:45:55;;;;;;;28.63;15.48;;;;;;;2.29;100.00;99836.00;5058376;28;20618;-67
2022/04/08 05:48:20;;;;;;;30.60;15.80;;;;;;;2.34;100.00;99839.56;5062340;28;20025;-68
2022/04/08 05:50:45;;;;;;;29.55;16.35;;;;;;;2.39;100.00;99835.34;5061557;28;20029;-68
2022/04/08 05:53:11;;;;;;;32.53;17.23;;;;;;;2.38;100.00;99830.09;5061347;28;20024;-67
2022/04/08 05:55:36;;;;;;;30.63;17.42;;;;;;;2.38;100.00;99825.75;5059096;28;20020;-67
2022/04/08 05:58:01;;;;;;;31.33;16.58;;;;;;;2.38;100.00;99830.97;5059990;28;20036;-74
2022/04/08 06:00:29;;;;;;;30.23;16.67;;;;;;;2.35;100.00;99828.31;5055514;28;20045;-66
2022/04/08 06:02:56;;;;;;;29.77;18.10;;;;;;;2.33;100.00;99829.13;5054924;28;20030;-67
2022/04/08 06:05:22;;;;;;;30.20;17.23;;;;;;;2.37;100.00;99825.72;5057930;28;20029;-69
2022/04/08 06:07:49;;;;;;;31.20;17.40;;;;;;;2.37;100.00;99824.00;5053904;28;20361;-67
2022/04/08 06:10:18;;;;;;;30.60;18.50;;;;;;;2.40;100.00;99831.00;5058963;28;20108;-68
2022/04/08 06:12:48;;;;;;;30.40;18.00;;;;;;;2.47;100.00;99832.03;5060202;28;20021;-68
2022/04/08 06:15:14;;;;;;;32.45;18.20;;;;;;;2.54;100.00;99828.72;5060666;28;20025;-68
2022/04/08 06:17:40;;;;;;;28.75;17.50;;;;;;;2.61;100.00;99822.75;5061345;28;20119;-67
2022/04/08 06:20:07;;;;;;;33.13;17.98;;;;;;;2.68;100.00;99823.75;5046927;28;20040;-68
2022/04/08 06:22:32;;;;;;;29.02;17.23;;;;;;;2.76;100.00;99830.00;5047740;28;20017;-68
2022/04/08 06:24:58;;;;;;;27.85;16.38;;;;;;;2.82;100.00;99827.50;5061628;28;20422;-67
2022/04/08 06:27:23;;;;;;;29.85;16.30;;;;;;;2.86;100.00;99829.34;5057171;28;20589;-69
2022/04/08 06:29:49;;;;;;;29.13;16.15;;;;;;;2.93;100.00;99838.19;5058934;28;20025;-75
2022/04/08 06:32:14;;;;;;;28.52;15.82;;;;;;;3.00;100.00;99840.06;5060744;28;20031;-66
2022/04/08 06:34:39;;;;;;;28.40;15.15;;;;;;;3.10;100.00;99835.88;5058880;28;20024;-66
2022/04/08 06:37:05;;;;;;;26.50;14.00;;;;;;;3.21;100.00;99838.69;5060952;28;20060;-65
2022/04/08 06:39:31;;;;;;;26.67;14.18;;;;;;;3.35;100.00;99832.00;5058088;28;20052;-70
2022/04/08 06:41:57;;;;;;;26.05;14.07;;;;;;;3.52;100.00;99828.78;5057924;28;20197;-66
2022/04/08 06:44:22;;;;;;;26.42;13.75;;;;;;;3.70;100.00;99815.13;5061359;28;20421;-68
2022/04/08 06:46:47;;;;;;;27.45;12.70;;;;;;;3.79;100.00;99821.38;5060844;28;20107;-69
2022/04/08 06:49:13;;;;;;;25.73;12.13;;;;;;;3.91;100.00;99812.84;5059681;28;20029;-65
2022/04/08 06:51:38;;;;;;;26.67;12.38;;;;;;;4.06;100.00;99809.56;5058456;28;20029;-66
2022/04/08 06:54:03;;;;;;;24.63;11.70;;;;;;;4.13;100.00;99810.53;5056037;28;20039;-67
2022/04/08 06:56:29;;;;;;;25.77;12.20;;;;;;;4.19;100.00;99800.16;5056703;28;20082;-65
2022/04/08 06:58:54;;;;;;;25.27;11.25;;;;;;;4.24;100.00;99802.81;5059521;28;20170;-64
2022/04/08 07:01:19;;;;;;;24.90;11.93;;;;;;;4.29;100.00;99811.63;5052308;28;20025;-66
2022/04/08 07:03:45;;;;;;;24.55;10.88;;;;;;;4.30;100.00;99808.16;5036302;28;20036;-65
2022/04/08 07:06:10;;;;;;;22.95;10.90;;;;;;;4.31;100.00;99809.91;5036421;28;20149;-64
2022/04/08 07:08:35;;;;;;;24.17;10.85;;;;;;;4.39;100.00;99821.34;5060894;28;20028;-65
2022/04/08 07:11:01;;;;;;;24.35;10.63;;;;;;;4.46;100.00;99810.09;5056599;28;20025;-63
2022/04/08 07:13:26;;;;;;;24.08;10.15;;;;;;;4.53;100.00;99811.06;5058057;28;20051;-64
2022/04/08 07:15:51;;;;;;;22.92;9.70;;;;;;;4.59;100.00;99812.88;5056165;28;20025;-65
2022/04/08 07:18:17;;;;;;;24.20;9.82;;;;;;;4.67;100.00;99804.25;5056972;28;20028;-65
2022/04/08 07:20:42;;;;;;;22.55;9.30;;;;;;;4.74;100.00;99805.19;5055985;28;20051;-65
2022/04/08 07:23:07;;;;;;;23.52;9.18;;;;;;;4.79;100.00;99798.28;5057143;28;20052;-65
2022/04/08 07:25:33;;;;;;;22.10;8.88;;;;;;;4.77;100.00;99799.13;5033040;28;20404;-65
2022/04/08 07:27:58;;;;;;;21.50;8.80;;;;;;;4.85;100.00;99792.25;5057812;28;20056;-66
2022/04/08 07:30:25;;;;;;;23.42;8.98;;;;;;;4.91;100.00;99805.41;5055153;28;20112;-65
2022/04/08 07:32:52;;;;;;;21.90;8.68;;;;;;;4.94;100.00;99794.94;5045065;28;20128;-64
2022/04/08 07:35:18;;;;;;;20.35;7.72;;;;;;;5.00;100.00;99792.38;5053437;28;20029;-65
2022/04/08 07:37:44;;;;;;;21.45;7.88;;;;;;;5.07;100.00;99798.59;5051485;28;20029;-64
2022/04/08 07:40:11;;;;;;;21.05;8.10;;;;;;;5.12;100.00;99796.00;5049610;28;20549;-65
2022/04/08 07:42:37;;;;;;;21.35;7.80;;;;;;;5.15;100.00;99796.03;5035787;28;20136;-64
2022/04/08 07:45:06;;;;;;;20.25;7.40;;;;;;;5.17;100.00;99802.16;5056067;28;20096;-71
2022/04/08 07:47:32;;;;;;;21.08;7.65;;;;;;;5.21;100.00;99802.22;5058016;28;20090;-70
2022/04/08 07:49:58;;;;;;;20.35;7.25;;;;;;;5.29;100.00;99796.19;5055507;28;20375;-71
2022/04/08 07:52:23;;;;;;;21.65;7.82;;;;;;;5.31;100.00;99797.06;5059292;28;20032;-71
2022/04/08 07:54:48;;;;;;;21.48;7.90;;;;;;;5.32;100.00;99781.34;5056455;28;20025;-71
2022/04/08 07:57:14;;;;;;;21.80;7.13;;;;;;;5.38;100.00;99783.13;5059806;28;20053;-71
2022/04/08 07:59:39;;;;;;;19.75;7.07;;;;;;;5.38;100.00;99783.13;5060897;28;20041;-71
2022/04/08 08:02:05;;;;;;;21.50;7.40;;;;;;;5.48;100.00;99789.34;5058721;28;20021;-71
2022/04/08 08:04:30;;;;;;;21.00;7.15;;;;;;;5.49;100.00;99786.75;5058132;28;20075;-71
2022/04/08 08:06:55;;;;;;;20.05;7.43;;;;;;;5.46;100.00;99780.56;5041798;28;20467;-71
2022/04/08 08:09:20;;;;;;;20.75;6.75;;;;;;;5.49;100.00;99783.22;5041376;28;20035;-71
2022/04/08 08:11:46;;;;;;;21.73;7.65;;;;;;;5.50;100.00;99780.59;5056814;28;20021;-72
2022/04/08 08:14:11;;;;;;;20.95;7.38;;;;;;;5.55;100.00;99783.28;5058667;28;20034;-71
2022/04/08 08:16:36;;;;;;;19.88;7.30;;;;;;;5.63;100.00;99773.72;5066501;28;20047;-71
2022/04/08 08:19:02;;;;;;;20.33;6.90;;;;;;;5.75;100.00;99779.06;5067308;28;20028;-71
2022/04/08 08:21:27;;;;;;;20.65;6.88;;;;;;;5.84;100.00;99788.75;5070131;28;20034;-71
2022/04/08 08:23:53;;;;;;;19.70;6.43;;;;;;;5.84;100.00;99785.22;5068387;28;20028;-71
2022/04/08 08:26:18;;;;;;;20.38;6.40;;;;;;;5.80;100.00;99780.84;5069113;28;20099;-72
2022/04/08 08:28:43;;;;;;;21.00;6.88;;;;;;;5.91;100.00;99779.16;5069833;28;20085;-72
2022/04/08 08:31:09;;;;;;;21.27;6.60;;;;;;;5.97;100.00;99774.00;5067843;28;20021;-72
2022/04/08 08:33:34;;;;;;;22.67;6.93;;;;;;;6.03;100.00;99770.50;5070879;28;20028;-73
2022/04/08 08:36:00;;;;;;;20.25;7.00;;;;;;;6.12;100.00;99765.34;5067145;28;20025;-73
2022/04/08 08:38:25;;;;;;;21.45;7.10;;;;;;;6.20;100.00;99765.34;5070143;28;20076;-72
2022/04/08 08:40:52;;;;;;;19.55;6.15;;;;;;;6.23;100.00;99755.78;5069621;28;20529;-69
2022/04/08 08:43:18;;;;;;;21.42;6.60;;;;;;;6.33;100.00;99750.56;5069096;28;20037;-76
2022/04/08 08:45:47;;;;;;;20.55;6.60;;;;;;;6.43;100.00;99755.81;5069933;28;20048;-65
2022/04/08 08:48:12;;;;;;;19.90;6.18;;;;;;;6.52;100.00;99744.47;5074132;28;20078;-69
2022/04/08 08:50:39;;;;;;;19.48;5.95;;;;;;;6.46;100.00;99741.84;5061266;28;20025;-65
2022/04/08 08:53:05;;;;;;;19.23;5.43;;;;;;;6.54;100.00;99750.63;5069173;28;20046;-65
2022/04/08 08:55:30;;;;;;;19.48;5.55;;;;;;;6.57;100.00;99744.53;5062577;28;20028;-64
2022/04/08 08:57:55;;;;;;;18.88;5.28;;;;;;;6.64;100.00;99730.53;5065616;28;20035;-73
2022/04/08 09:00:23;;;;;;;21.30;5.63;;;;;;;6.83;100.00;99722.69;5061762;28;20048;-64
2022/04/08 09:02:49;;;;;;;18.38;5.28;;;;;;;6.90;100.00;99722.72;5067321;28;20032;-66
2022/04/08 09:05:18;;;;;;;19.40;4.97;;;;;;;6.91;100.00;99723.56;5081554;28;20017;-66
2022/04/08 09:07:53;;;;;;;18.58;4.80;;;;;;;6.90;100.00;99714.84;5078748;28;20008;-65
2022/04/08 09:10:23;;;;;;;19.08;5.40;;;;;;;6.77;100.00;99710.41;5088068;28;20005;-65
2022/04/08 09:12:53;;;;;;;19.92;5.20;;;;;;;7.00;100.00;99705.19;5085487;28;20013;-68
2022/04/08 09:15:19;;;;;;;19.23;4.85;;;;;;;7.09;100.00;99717.47;5080628;28;20025;-70
2022/04/08 09:17:44;;;;;;;18.90;5.40;;;;;;;7.07;100.00;99708.72;5073041;28;20091;-71
2022/04/08 09:20:12;;;;;;;21.00;5.50;;;;;;;7.18;100.00;99714.84;5066362;28;20032;-72
2022/04/08 09:22:37;;;;;;;18.60;5.38;;;;;;;7.19;100.00;99721.84;5062800;28;20479;-71
2022/04/08 09:25:25;;;;;;;17.98;4.88;;;;;;;7.13;100.00;99720.09;5062291;28;20054;-73
2022/04/08 09:27:50;;;;;;;19.58;4.97;;;;;;;7.01;100.00;99719.22;5063171;28;20029;-70
2022/04/08 09:30:20;;;;;;;18.70;4.60;;;;;;;7.15;100.00;99712.22;5065118;28;20031;-73
2022/04/08 09:32:45;;;;;;;18.60;4.75;;;;;;;7.12;100.00;99727.97;5080117;28;20024;-70
2022/04/08 09:35:18;;;;;;;17.45;4.30;;;;;;;7.07;100.00;99729.72;5078513;28;20075;-73
2022/04/08 09:37:53;;;;;;;;;;;;;;;7.23;100.00;99715.72;5074509;28;20013;-72
2022/04/08 09:40:19;;;;;;;20.08;5.28;;;;;;;7.22;100.00;99715.72;5082842;28;19912;-74
2022/04/08 09:42:49;;;;;;;20.85;4.97;;;;;;;7.14;100.00;99719.22;5060934;28;20044;-70
2022/04/08 09:45:26;;;;;;;18.00;5.20;;;;;;;7.14;100.00;99721.84;5076612;28;20032;-69
2022/04/08 09:47:51;;;;;;;19.63;4.60;;;;;;;7.11;100.00;99711.34;5079871;28;20021;-71
2022/04/08 09:50:17;;;;;;;19.67;4.45;;;;;;;7.12;100.00;99717.44;5081324;28;20024;-70
2022/04/08 09:52:44;;;;;;;17.95;4.50;;;;;;;7.04;100.00;99716.59;5080596;28;20028;-69
2022/04/08 09:55:10;;;;;;;18.15;4.40;;;;;;;6.99;100.00;99711.34;5080955;28;20004;-72
2022/04/08 09:57:38;;;;;;;18.15;4.30;;;;;;;7.02;100.00;99697.31;5074727;28;20036;-69
2022/04/08 10:00:04;;;;;;;18.38;4.30;;;;;;;7.08;100.00;99710.47;5077479;28;20060;-71
2022/04/08 10:02:33;;;;;;;19.35;4.35;;;;;;;7.19;100.00;99719.22;5082092;28;20017;-71
2022/04/08 10:04:59;;;;;;;19.25;4.45;;;;;;;7.19;100.00;99707.81;5072775;28;20028;-69
2022/04/08 10:07:26;;;;;;;18.30;4.30;;;;;;;7.28;100.00;99706.09;5070199;28;20055;-72
2022/04/08 10:10:22;;;;;;;17.85;4.38;;;;;;;7.56;100.00;99707.78;5059837;28;20114;-72
2022/04/08 10:13:30;;;;;;;17.90;4.55;;;;;;;7.78;100.00;99706.03;5062386;28;20113;-71
2022/04/08 10:16:14;;;;;;;20.33;4.38;;;;;;;7.71;100.00;99718.28;5061169;28;20025;-72
2022/04/08 10:18:42;;;;;;;18.60;4.35;;;;;;;7.61;100.00;99720.06;5061803;28;20124;-72
2022/04/08 10:21:07;;;;;;;17.80;4.47;;;;;;;7.59;100.00;99705.19;5065042;28;20558;-68
2022/04/08 10:23:37;;;;;;;20.73;4.60;;;;;;;7.54;100.00;99705.16;5062912;28;20119;-72
2022/04/08 10:26:04;;;;;;;19.38;5.05;;;;;;;7.54;100.00;99705.16;5065748;28;20059;-72
2022/04/08 10:28:37;;;;;;;20.23;4.70;;;;;;;7.56;100.00;99700.78;5062280;28;20100;-72
2022/04/08 10:31:15;;;;;;;19.30;4.78;;;;;;;7.44;100.00;99703.44;5059962;28;20032;-72
2022/04/08 10:33:49;;;;;;;18.50;4.78;;;;;;;7.44;100.00;99698.16;5065780;28;20028;-72
2022/04/08 10:36:15;;;;;;;18.25;5.10;;;;;;;7.41;100.00;99687.66;5064789;28;20024;-65
2022/04/08 10:38:41;;;;;;;21.00;5.50;;;;;;;7.38;100.00;99692.91;5064184;28;20498;-66
2022/04/08 10:41:09;;;;;;;20.20;5.07;;;;;;;7.41;100.00;99685.03;5063686;28;20025;-66
2022/04/08 10:43:48;;;;;;;20.35;4.90;;;;;;;7.42;100.00;99686.78;5065089;28;20025;-65
2022/04/08 10:46:27;;;;;;;20.00;5.05;;;;;;;7.34;100.00;99689.44;5063931;28;20031;-65
2022/04/08 10:48:59;;;;;;;19.88;5.43;;;;;;;7.39;100.00;99689.44;5062370;28;20035;-65
2022/04/08 10:51:30;;;;;;;18.65;5.35;;;;;;;7.40;100.00;99696.44;5065495;28;20029;-65
2022/04/08 10:54:04;;;;;;;17.73;5.35;;;;;;;7.31;100.00;99690.31;5062496;28;20017;-65
2022/04/08 10:56:34;;;;;;;20.77;5.93;;;;;;;7.27;100.00;99692.94;5058240;28;20025;-65
2022/04/08 10:59:00;;;;;;;19.70;5.70;;;;;;;7.31;100.00;99694.66;5057915;28;20049;-65
2022/04/08 11:01:25;;;;;;;20.13;5.40;;;;;;;7.23;100.00;99702.56;5066971;28;20094;-66
2022/04/08 11:04:02;;;;;;;19.40;5.20;;;;;;;7.12;100.00;99705.22;5073616;28;20096;-66
2022/04/08 11:06:29;;;;;;;21.50;5.53;;;;;;;7.04;100.00;99690.31;5065380;28;20025;-66
2022/04/08 11:08:54;;;;;;;20.15;5.53;;;;;;;7.22;100.00;99685.03;5071008;28;20033;-65
2022/04/08 11:11:34;;;;;;;18.50;5.40;;;;;;;7.32;100.00;99681.56;5067264;28;20429;-65
2022/04/08 11:14:01;;;;;;;17.80;5.00;;;;;;;7.31;100.00;99669.28;5057949;28;20029;-70
2022/04/08 11:16:37;;;;;;;19.35;5.35;;;;;;;7.37;100.00;99667.50;5057516;28;20021;-71
2022/04/08 11:19:12;;;;;;;19.38;5.18;;;;;;;7.55;100.00;99670.09;5058530;28;20386;-72
2022/04/08 11:21:42;;;;;;;18.50;5.20;;;;;;;7.43;100.00;99664.88;5064075;28;20036;-72